Caseara, Brazil
Current Conditions -  °F | °C
As of 3:00 PM on Monday 20 Oct 2014 (Local Time) from SBPJ Reporting Station
Thunderstorm Thunderstorm  
Wind Chill: 91°   Ceiling: Unl
Heat Index: 94°   Visibility: 6mi
Dew Point: 66°   Wind: 6mph
Humidity: 43%   Direction: 200°SSW
Pressure: 29.83"   Gusts: NA
Location:  9.28°S, 49.96°W
Report Text: SBPJ 201800Z 20005KT 9999 TS FEW030 FEW035CB 33/19 Q1010
Loading
Personal Weather Stations






























Interactive Weather Map
Tropical Storm Tracking
New forecast layout! Learn more

10-Day Weather Forecast

Advertisements
Track Severe Weather on mobile